createdAt,value
2023-10-13T00:02:07.379Z,96284.80
2023-10-13T00:04:38.100Z,96280.92
2023-10-13T00:07:11.220Z,96278.04
2023-10-13T00:09:44.019Z,96272.02
2023-10-13T00:12:17.107Z,96269.00
2023-10-13T00:14:53.039Z,96267.88
2023-10-13T00:17:27.108Z,96265.30
2023-10-13T00:20:02.062Z,96264.80
2023-10-13T00:22:36.352Z,96263.27
2023-10-13T00:25:07.171Z,96260.43
2023-10-13T00:27:43.012Z,96259.35
2023-10-13T00:30:22.436Z,96262.29
2023-10-13T00:32:58.182Z,96262.35
2023-10-13T00:35:37.288Z,96264.34
2023-10-13T00:38:14.891Z,96267.70
2023-10-13T00:47:37.391Z,96270.27
2023-10-13T00:50:06.351Z,96270.04
2023-10-13T00:52:37.086Z,96272.01
2023-10-13T00:55:06.586Z,96268.73
2023-10-13T00:57:35.313Z,96265.50
2023-10-13T01:00:18.783Z,96266.64
2023-10-13T01:02:56.536Z,96268.09
2023-10-13T01:05:26.575Z,96267.38
2023-10-13T01:07:55.763Z,96267.90
2023-10-13T01:10:27.537Z,96270.95
2023-10-13T01:12:56.252Z,96277.45
2023-10-13T01:15:30.851Z,96280.11
2023-10-13T01:18:13.823Z,96278.10
2023-10-13T01:20:53.337Z,96277.97
2023-10-13T01:23:25.764Z,96276.60
2023-10-13T01:25:55.116Z,96272.84
2023-10-13T01:28:25.404Z,96269.23
2023-10-13T01:30:54.386Z,96265.99
2023-10-13T01:33:29.762Z,96261.35
2023-10-13T01:36:00.360Z,96263.14
2023-10-13T01:38:28.945Z,96262.71
2023-10-13T01:40:58.427Z,96265.36
2023-10-13T01:43:27.030Z,96265.45
2023-10-13T01:45:56.292Z,96270.58
2023-10-13T01:48:24.406Z,96265.73
2023-10-13T01:50:57.581Z,96271.79
2023-10-13T01:53:25.842Z,96276.63
2023-10-13T01:55:58.094Z,96277.27
2023-10-13T01:58:30.154Z,96274.49
2023-10-13T02:01:01.293Z,96278.60
2023-10-13T02:03:31.439Z,96280.81
2023-10-13T02:06:05.811Z,96278.58
2023-10-13T02:08:41.770Z,96276.56
2023-10-13T02:11:10.851Z,96269.55
2023-10-13T02:13:49.794Z,96265.15
2023-10-13T02:16:25.811Z,96264.64
2023-10-13T02:18:54.880Z,96264.63
2023-10-13T02:21:23.255Z,96262.76
2023-10-13T02:24:06.663Z,96262.92
2023-10-13T02:26:40.374Z,96261.20
2023-10-13T02:29:08.997Z,96265.48
2023-10-13T02:31:42.042Z,96269.79
2023-10-13T02:34:10.484Z,96271.48
2023-10-13T02:36:59.307Z,96269.43
2023-10-13T02:39:28.667Z,96259.48
2023-10-13T02:41:57.628Z,96255.18
2023-10-13T02:44:32.462Z,96253.00
2023-10-13T02:47:01.144Z,96255.84
2023-10-13T02:49:35.501Z,96251.41
2023-10-13T02:52:26.148Z,96250.61
2023-10-13T02:54:55.008Z,96254.48
2023-10-13T02:57:24.151Z,96253.55
2023-10-13T02:59:58.458Z,96252.02
2023-10-13T03:02:27.216Z,96247.77
2023-10-13T03:05:00.760Z,96245.80
2023-10-13T03:07:30.335Z,96249.92
2023-10-13T03:10:02.022Z,96249.20
2023-10-13T03:12:34.643Z,96250.25
2023-10-13T03:15:20.540Z,96248.98
2023-10-13T03:17:49.018Z,96249.77
2023-10-13T03:20:25.608Z,96247.61
2023-10-13T03:22:54.369Z,96249.90
2023-10-13T03:25:30.216Z,96244.27
2023-10-13T03:28:01.250Z,96249.09
2023-10-13T03:30:56.336Z,96248.89
2023-10-13T03:33:27.434Z,96247.11
2023-10-13T03:35:55.764Z,96241.03
2023-10-13T03:38:29.011Z,96233.83
2023-10-13T03:40:58.072Z,96223.86
2023-10-13T03:43:26.520Z,96220.33
2023-10-13T03:46:09.386Z,96223.15
2023-10-13T03:48:54.105Z,96222.62
2023-10-13T03:51:22.444Z,96226.63
2023-10-13T03:53:57.612Z,96228.52
2023-10-13T03:56:46.111Z,96228.87
2023-10-13T03:59:14.512Z,96227.65
2023-10-13T04:01:59.957Z,96229.83
2023-10-13T04:04:43.715Z,96228.95
2023-10-13T04:07:11.820Z,96226.66
2023-10-13T04:09:41.229Z,96230.70
2023-10-13T04:12:27.916Z,96233.16
2023-10-13T04:15:07.868Z,96232.09
2023-10-13T04:17:42.527Z,96232.55
2023-10-13T04:20:10.984Z,96229.41
2023-10-13T04:22:49.445Z,96234.35
2023-10-13T04:25:42.681Z,96232.04
2023-10-13T04:28:17.620Z,96238.34
2023-10-13T04:30:57.456Z,96244.31
2023-10-13T04:33:36.575Z,96251.16
2023-10-13T04:36:29.164Z,96255.55
2023-10-13T04:39:06.341Z,96258.18
2023-10-13T04:41:46.665Z,96259.55
2023-10-13T04:44:35.906Z,96261.79
2023-10-13T04:47:04.565Z,96268.76
2023-10-13T04:49:50.920Z,96277.08
2023-10-13T04:52:53.076Z,96275.11
2023-10-13T04:55:39.740Z,96282.90
2023-10-13T04:58:36.716Z,96292.55
2023-10-13T05:01:38.214Z,96299.02
2023-10-13T05:04:15.489Z,96311.43
2023-10-13T05:06:46.574Z,96317.66
2023-10-13T05:09:33.622Z,96322.77
2023-10-13T05:12:20.477Z,96322.73
2023-10-13T05:15:07.060Z,96320.20
2023-10-13T05:17:53.813Z,96324.45
2023-10-13T05:20:40.311Z,96327.24
2023-10-13T05:23:27.201Z,96332.09
2023-10-13T05:26:13.865Z,96334.27
2023-10-13T05:29:00.302Z,96335.47
2023-10-13T05:31:47.412Z,96336.41
2023-10-13T05:34:34.544Z,96340.49
2023-10-13T05:37:21.242Z,96350.02
2023-10-13T05:40:08.359Z,96354.02
2023-10-13T05:42:54.839Z,96353.67
2023-10-13T05:45:41.259Z,96358.59
2023-10-13T05:48:25.797Z,96360.10
2023-10-13T05:51:12.838Z,96360.59
2023-10-13T05:53:59.657Z,96363.17
2023-10-13T05:56:46.439Z,96367.81
2023-10-13T05:59:33.427Z,96368.45
2023-10-13T06:02:19.734Z,96373.17
2023-10-13T06:05:06.437Z,96374.80
2023-10-13T06:07:54.464Z,96371.84
2023-10-13T06:10:43.269Z,96377.00
2023-10-13T06:14:30.480Z,96384.45
2023-10-13T06:18:18.961Z,96394.33
2023-10-13T06:36:13.441Z,96425.41
2023-10-13T06:39:02.149Z,96437.80
2023-10-13T06:42:10.438Z,96448.02
2023-10-13T06:45:18.662Z,96461.42
2023-10-13T06:48:26.777Z,96472.61
2023-10-13T06:51:54.724Z,96483.18
2023-10-13T06:55:51.707Z,96477.48
2023-10-13T06:59:59.432Z,96473.14
2023-10-13T07:30:21.190Z,96461.05
2023-10-13T07:33:14.428Z,96463.14
2023-10-13T07:36:25.557Z,96460.48
2023-10-13T07:39:47.289Z,96458.30
2023-10-13T07:43:35.136Z,96457.93
2023-10-13T07:46:23.689Z,96458.03
2023-10-13T07:50:12.009Z,96456.77
2023-10-13T07:53:59.875Z,96454.89
2023-10-13T08:22:03.397Z,96421.63
2023-10-13T08:25:37.138Z,96421.21
2023-10-13T08:28:55.146Z,96418.24
2023-10-13T08:32:15.815Z,96414.21
2023-10-13T08:35:31.541Z,96411.44
2023-10-13T08:39:17.112Z,96418.71
2023-10-13T08:42:47.826Z,96426.80
2023-10-13T08:57:52.823Z,96433.59
2023-10-13T09:01:36.379Z,96435.80
2023-10-13T09:16:43.603Z,96429.13
2023-10-13T09:19:13.528Z,96434.48
2023-10-13T09:21:42.854Z,96434.08
2023-10-13T09:24:27.692Z,96439.34
2023-10-13T09:26:56.932Z,96442.17
2023-10-13T09:29:26.408Z,96441.92
2023-10-13T09:32:05.436Z,96439.34
2023-10-13T09:34:41.902Z,96444.50
2023-10-13T09:37:30.158Z,96451.08
2023-10-13T09:41:01.834Z,96454.31
2023-10-13T09:44:31.361Z,96452.61
2023-10-13T09:47:42.050Z,96450.83
2023-10-13T09:50:48.033Z,96452.62
2023-10-13T09:53:19.536Z,96446.22
2023-10-13T09:56:12.477Z,96447.22
2023-10-13T09:59:09.664Z,96444.32
2023-10-13T10:01:51.814Z,96447.67
2023-10-13T10:04:24.585Z,96449.86
2023-10-13T10:06:57.509Z,96446.05
2023-10-13T10:09:50.760Z,96441.82
2023-10-13T10:12:30.856Z,96441.05
2023-10-13T10:15:21.575Z,96436.64
2023-10-13T10:18:49.926Z,96434.05
2023-10-13T10:22:58.144Z,96427.61
2023-10-13T10:29:03.389Z,96421.50
2023-10-13T10:31:42.632Z,96419.05
2023-10-13T10:34:21.035Z,96415.30
2023-10-13T10:37:15.866Z,96416.58
2023-10-13T10:39:51.206Z,96417.48
2023-10-13T10:47:38.612Z,96412.84
2023-10-13T10:50:36.147Z,96411.61
2023-10-13T10:53:11.314Z,96412.98
2023-10-13T10:55:42.605Z,96407.59
2023-10-13T10:58:56.337Z,96405.80
2023-10-13T11:02:24.646Z,96404.17
2023-10-13T11:05:18.223Z,96401.61
2023-10-13T11:07:52.259Z,96396.59
2023-10-13T11:10:28.500Z,96395.05
2023-10-13T11:13:24.740Z,96396.61
2023-10-13T11:15:52.101Z,96395.63
2023-10-13T11:18:39.158Z,96392.09
2023-10-13T11:21:08.292Z,96389.90
2023-10-13T11:23:40.847Z,96391.14
2023-10-13T11:26:09.037Z,96387.92
2023-10-13T11:29:11.030Z,96386.60
2023-10-13T11:31:44.002Z,96376.13
2023-10-13T11:34:14.763Z,96375.80
2023-10-13T11:36:45.667Z,96373.36
2023-10-13T11:39:25.836Z,96370.02
2023-10-13T11:43:13.585Z,96371.50
2023-10-13T11:46:47.943Z,96375.31
2023-10-13T11:50:02.643Z,96369.81
2023-10-13T11:53:25.163Z,96371.38
2023-10-13T11:57:39.121Z,96369.79
2023-10-13T12:01:07.149Z,96372.08
2023-10-13T12:05:03.866Z,96370.81
2023-10-13T12:07:46.690Z,96367.34
2023-10-13T12:33:52.934Z,96368.73
2023-10-13T12:36:22.471Z,96374.85
2023-10-13T12:39:02.383Z,96374.77
2023-10-13T12:41:48.898Z,96373.70
2023-10-13T12:44:43.775Z,96374.01
2023-10-13T12:47:32.970Z,96375.36
2023-10-13T12:50:08.638Z,96375.34
2023-10-13T12:52:41.771Z,96376.05
2023-10-13T12:55:11.464Z,96370.94
2023-10-13T12:57:45.970Z,96368.23
2023-10-13T13:00:26.444Z,96369.86
2023-10-13T13:02:57.549Z,96367.79
2023-10-13T13:05:43.355Z,96365.97
2023-10-13T13:08:13.682Z,96365.73
2023-10-13T13:10:44.998Z,96363.42
2023-10-13T13:13:14.191Z,96361.27
2023-10-13T13:15:42.175Z,96358.27
2023-10-13T13:18:13.247Z,96361.40
2023-10-13T13:20:44.727Z,96359.67
2023-10-13T13:23:15.428Z,96359.22
2023-10-13T13:26:16.573Z,96356.23
2023-10-13T13:28:51.482Z,96354.45
2023-10-13T13:31:20.578Z,96352.39
2023-10-13T13:33:48.566Z,96350.95
2023-10-13T13:36:17.612Z,96348.93
2023-10-13T13:39:26.187Z,96350.11
2023-10-13T13:41:58.001Z,96351.91
2023-10-13T13:44:30.441Z,96353.20
2023-10-13T13:46:58.677Z,96351.95
2023-10-13T13:49:41.569Z,96351.42
2023-10-13T13:52:19.092Z,96345.34
2023-10-13T13:54:50.194Z,96345.31
2023-10-13T13:57:24.045Z,96340.91
2023-10-13T13:59:59.050Z,96343.23
2023-10-13T14:02:29.909Z,96345.89
2023-10-13T14:04:58.734Z,96340.66
2023-10-13T14:07:47.165Z,96343.86
2023-10-13T14:10:54.972Z,96345.04
2023-10-13T14:13:43.349Z,96342.81
2023-10-13T14:16:17.717Z,96339.34
2023-10-13T14:18:51.218Z,96336.13
2023-10-13T14:21:25.832Z,96341.37
2023-10-13T14:23:54.884Z,96343.56
2023-10-13T14:26:35.706Z,96342.73
2023-10-13T14:29:09.301Z,96343.61
2023-10-13T14:31:40.084Z,96343.89
2023-10-13T14:34:09.045Z,96346.95
2023-10-13T14:36:38.066Z,96347.73
2023-10-13T14:39:22.793Z,96350.09
2023-10-13T14:41:51.024Z,96348.63
2023-10-13T14:44:19.365Z,96349.13
2023-10-13T14:46:47.526Z,96344.71
2023-10-13T14:49:19.962Z,96344.58
2023-10-13T14:51:48.263Z,96348.09
2023-10-13T14:54:17.718Z,96349.11
2023-10-13T14:56:45.852Z,96348.14
2023-10-13T14:59:18.504Z,96345.38
2023-10-13T15:01:48.091Z,96347.56
2023-10-13T15:04:16.633Z,96345.52
2023-10-13T15:06:45.586Z,96348.66
2023-10-13T15:09:13.841Z,96351.73
2023-10-13T15:11:49.762Z,96349.34
2023-10-13T15:14:21.533Z,96342.16
2023-10-13T15:16:50.806Z,96338.27
2023-10-13T15:19:19.389Z,96336.02
2023-10-13T15:21:54.206Z,96337.71
2023-10-13T15:24:26.976Z,96335.66
2023-10-13T15:27:04.208Z,96336.84
2023-10-13T15:29:38.682Z,96338.99
2023-10-13T15:32:27.752Z,96339.20
2023-10-13T15:34:57.286Z,96339.26
2023-10-13T15:37:26.840Z,96336.86
2023-10-13T15:39:57.139Z,96342.30
2023-10-13T15:42:25.471Z,96343.62
2023-10-13T15:45:36.736Z,96347.75
2023-10-13T15:48:17.960Z,96354.73
2023-10-13T15:50:51.419Z,96358.35
2023-10-13T15:53:22.473Z,96360.30
2023-10-13T15:55:51.295Z,96356.59
2023-10-13T15:58:20.603Z,96357.77
2023-10-13T16:00:49.229Z,96356.24
2023-10-13T16:03:37.380Z,96359.56
2023-10-13T16:06:11.242Z,96358.39
2023-10-13T16:08:43.756Z,96358.36
2023-10-13T16:11:31.994Z,96357.23
2023-10-13T16:14:00.068Z,96357.16
2023-10-13T16:16:28.388Z,96361.20
2023-10-13T16:18:57.058Z,96362.20
2023-10-13T16:21:45.635Z,96363.73
2023-10-13T16:24:18.715Z,96369.34
2023-10-13T16:27:15.276Z,96370.70
2023-10-13T16:29:45.188Z,96369.03
2023-10-13T16:32:36.132Z,96369.41
2023-10-13T16:35:08.272Z,96375.95
2023-10-13T16:37:36.433Z,96376.45
2023-10-13T16:40:43.969Z,96377.20
2023-10-13T16:43:15.369Z,96374.19
2023-10-13T16:46:14.948Z,96371.68
2023-10-13T16:49:03.759Z,96372.16
2023-10-13T16:52:12.097Z,96374.10
2023-10-13T16:54:41.715Z,96372.34
2023-10-13T16:57:30.029Z,96368.27
2023-10-13T17:00:20.050Z,96369.30
2023-10-13T17:02:48.443Z,96373.64
2023-10-13T17:05:37.202Z,96374.29
2023-10-13T17:08:25.311Z,96376.15
2023-10-13T17:10:57.856Z,96374.23
2023-10-13T17:13:28.492Z,96366.52
2023-10-13T17:16:00.693Z,96369.50
2023-10-13T17:18:38.592Z,96370.08
2023-10-13T17:21:55.114Z,96372.27
2023-10-13T17:24:43.364Z,96373.29
2023-10-13T17:27:55.732Z,96375.41
2023-10-13T17:31:06.820Z,96371.70
2023-10-13T17:33:59.650Z,96373.30
2023-10-13T17:36:29.936Z,96374.55
2023-10-13T17:39:18.453Z,96372.00
2023-10-13T17:41:46.688Z,96370.77
2023-10-13T17:44:15.908Z,96370.78
2023-10-13T17:46:47.444Z,96369.26
2023-10-13T17:49:55.404Z,96371.42
2023-10-13T17:52:23.608Z,96370.44
2023-10-13T17:56:15.422Z,96374.87
2023-10-13T17:59:23.922Z,96371.84
2023-10-13T18:01:52.647Z,96376.94
2023-10-13T18:04:22.053Z,96377.29
2023-10-13T18:07:33.189Z,96374.70
2023-10-13T18:10:01.390Z,96373.98
2023-10-13T18:12:30.557Z,96370.16
2023-10-13T18:14:58.629Z,96369.59
2023-10-13T18:17:33.568Z,96372.81
2023-10-13T18:20:05.002Z,96375.95
2023-10-13T18:22:33.106Z,96377.25
2023-10-13T18:25:22.775Z,96375.64
2023-10-13T18:28:11.502Z,96372.20
2023-10-13T18:31:03.412Z,96367.63
2023-10-13T18:33:35.954Z,96368.50
2023-10-13T18:36:21.434Z,96368.92
2023-10-13T18:39:10.249Z,96369.42
2023-10-13T18:42:18.141Z,96370.33
2023-10-13T18:45:06.383Z,96377.70
2023-10-13T18:47:35.201Z,96375.96
2023-10-13T18:50:06.489Z,96376.64
2023-10-13T18:52:34.884Z,96377.27
2023-10-13T18:55:06.730Z,96374.98
2023-10-13T18:57:55.059Z,96374.30
2023-10-13T19:00:27.122Z,96373.71
2023-10-13T19:02:55.757Z,96375.90
2023-10-13T19:05:23.962Z,96376.09
2023-10-13T19:08:13.818Z,96379.48
2023-10-13T19:10:42.011Z,96375.81
2023-10-13T19:13:30.125Z,96376.39
2023-10-13T19:16:02.331Z,96378.50
2023-10-13T19:19:34.208Z,96379.84
2023-10-13T19:27:00.195Z,96380.48
2023-10-13T19:30:28.794Z,96378.69
2023-10-13T19:44:26.069Z,96380.27
2023-10-13T19:48:04.858Z,96385.23
2023-10-13T20:02:24.039Z,96387.00
2023-10-13T20:17:42.240Z,96396.31
2023-10-13T20:21:30.863Z,96394.69
2023-10-13T20:43:21.049Z,96367.74
2023-10-13T20:46:10.507Z,96367.58
2023-10-13T20:48:39.226Z,96364.30
2023-10-13T20:51:11.190Z,96361.95
2023-10-13T20:53:59.304Z,96366.14
2023-10-13T20:56:50.891Z,96366.14
2023-10-13T20:59:22.493Z,96360.79
2023-10-13T21:02:31.876Z,96359.73
2023-10-13T21:05:42.599Z,96355.42
2023-10-13T21:09:12.689Z,96355.20
2023-10-13T21:12:43.198Z,96354.83
2023-10-13T21:15:17.375Z,96355.40
2023-10-13T21:18:15.137Z,96354.57
2023-10-13T21:22:14.482Z,96354.45
2023-10-13T21:26:11.180Z,96350.84
2023-10-13T21:34:20.503Z,96344.50
2023-10-13T21:36:52.692Z,96343.88
2023-10-13T21:39:30.841Z,96342.10
2023-10-13T21:42:06.813Z,96339.39
2023-10-13T21:44:38.389Z,96339.17
2023-10-13T21:47:08.313Z,96337.73
2023-10-13T23:31:53.242Z,96305.17
2023-10-13T23:34:22.518Z,96303.80
2023-10-13T23:36:49.586Z,96303.38
2023-10-13T23:39:28.381Z,96298.76
2023-10-13T23:41:58.678Z,96298.58
2023-10-13T23:44:32.965Z,96297.67
2023-10-13T23:47:00.134Z,96295.74
2023-10-13T23:49:28.532Z,96287.59
2023-10-13T23:52:01.833Z,96284.41
2023-10-13T23:54:31.588Z,96279.27
2023-10-13T23:57:01.501Z,96273.60
2023-10-13T23:59:28.905Z,96268.41
